Portada
METAR-TAF:

METAR-TAF

Aeroports :

Aeroport Internacional de Bahrain

Bahrain, Bahrain

latitud: 26-16N, longitud: 050-39E, altitud: 2 m

Observació

L'informe es va fer fa 29 minuts, a les 22:00 UTC
Vent 6 kt del Sud/Sud-Est, variant entre Est/Sud-Est i Sud/Sud-Oest
Temperatura 33°C
Humitat 63%
Pressió 1004 hPa
Visibilitat 10 km o més
sense núvols per sota de 1500 mi sense presència de cumulonimbus.

METAR: OBBI 302200Z 15006KT 120V200 CAVOK 33/25 Q1004 NOSIG

Hora: 01:29 (22:29 UTC)

Pronòstic

L'informe es va fer fa 5 hores i 29 minuts, a les 17:00 UTC
Pronòstic vàlid del 30 a les 18 UTC al 02 a les 00 UTC
Vent 10 kt del Est
Visibilitat: 9000 m

TAF: OBBI 301700Z 3018/0200 09010KT 9000 NSC

Observacions i pronòstics meteorològics de més de 4000 aeroports (METAR i TAF).

Les estacions disponibles són els punts grocs i vermells al mapa.

Posi el ratolí al punt desitjat per veure el nom de l'estació.

Feu clic per veure les observacions i els pronòstics meteorològics.

Per canviar el mapa: feu clic els botons verds amb una creu de color negre per apropar; al botó verd amb un guió per allunyar la imatge; o en les fletxes verdes per a mapes adjacents.


METAR-TAF: